sensor_id;sensor_type;location;lat;lon;timestamp;temperature;humidity
47168;DHT22;32931;47.778;17.806;2023-02-21T00:01:53;8.00;99.90
47168;DHT22;32931;47.778;17.806;2023-02-21T00:04:38;8.00;99.90
47168;DHT22;32931;47.778;17.806;2023-02-21T00:07:23;7.90;99.90
47168;DHT22;32931;47.778;17.806;2023-02-21T00:10:08;7.90;99.90
47168;DHT22;32931;47.778;17.806;2023-02-21T00:12:55;7.90;99.90
47168;DHT22;32931;47.778;17.806;2023-02-21T00:15:40;7.90;99.90
47168;DHT22;32931;47.778;17.806;2023-02-21T00:18:24;7.90;99.90
47168;DHT22;32931;47.778;17.806;2023-02-21T00:21:08;7.90;99.90
47168;DHT22;32931;47.778;17.806;2023-02-21T00:23:53;7.90;99.90
47168;DHT22;32931;47.778;17.806;2023-02-21T00:26:37;7.90;99.90
47168;DHT22;32931;47.778;17.806;2023-02-21T00:29:22;7.80;99.90
47168;DHT22;32931;47.778;17.806;2023-02-21T00:32:06;7.90;99.90
47168;DHT22;32931;47.778;17.806;2023-02-21T00:34:51;7.80;99.90
47168;DHT22;32931;47.778;17.806;2023-02-21T00:37:35;7.80;99.90
47168;DHT22;32931;47.778;17.806;2023-02-21T00:40:20;7.80;99.90
47168;DHT22;32931;47.778;17.806;2023-02-21T00:43:04;7.80;99.90
47168;DHT22;32931;47.778;17.806;2023-02-21T00:45:49;7.70;99.90
47168;DHT22;32931;47.778;17.806;2023-02-21T00:48:34;7.70;99.90
47168;DHT22;32931;47.778;17.806;2023-02-21T00:51:18;7.70;99.90
47168;DHT22;32931;47.778;17.806;2023-02-21T00:54:03;7.60;99.90
47168;DHT22;32931;47.778;17.806;2023-02-21T00:56:47;7.60;99.90
47168;DHT22;32931;47.778;17.806;2023-02-21T00:59:32;7.60;99.90
47168;DHT22;32931;47.778;17.806;2023-02-21T01:02:16;7.50;99.90
47168;DHT22;32931;47.778;17.806;2023-02-21T01:05:01;7.50;99.90
47168;DHT22;32931;47.778;17.806;2023-02-21T01:07:46;7.50;99.90
47168;DHT22;32931;47.778;17.806;2023-02-21T01:10:31;7.60;99.90
47168;DHT22;32931;47.778;17.806;2023-02-21T01:13:15;7.60;99.90
47168;DHT22;32931;47.778;17.806;2023-02-21T01:16:00;7.50;99.90
47168;DHT22;32931;47.778;17.806;2023-02-21T01:18:44;7.60;99.90
47168;DHT22;32931;47.778;17.806;2023-02-21T01:21:29;7.50;99.90
47168;DHT22;32931;47.778;17.806;2023-02-21T01:24:16;7.50;99.90
47168;DHT22;32931;47.778;17.806;2023-02-21T01:27:00;7.50;99.90
47168;DHT22;32931;47.778;17.806;2023-02-21T01:29:46;7.50;99.90
47168;DHT22;32931;47.778;17.806;2023-02-21T01:32:31;7.50;99.90
47168;DHT22;32931;47.778;17.806;2023-02-21T01:35:16;7.50;99.90
47168;DHT22;32931;47.778;17.806;2023-02-21T01:38:00;7.50;99.90
47168;DHT22;32931;47.778;17.806;2023-02-21T01:40:45;7.50;99.90
47168;DHT22;32931;47.778;17.806;2023-02-21T01:43:29;7.60;99.90
47168;DHT22;32931;47.778;17.806;2023-02-21T01:46:16;7.60;99.90
47168;DHT22;32931;47.778;17.806;2023-02-21T01:49:12;7.60;99.90
47168;DHT22;32931;47.778;17.806;2023-02-21T01:51:59;7.60;99.90
47168;DHT22;32931;47.778;17.806;2023-02-21T01:54:48;7.70;99.90
47168;DHT22;32931;47.778;17.806;2023-02-21T01:57:34;7.70;99.90
47168;DHT22;32931;47.778;17.806;2023-02-21T02:00:19;7.70;99.90
47168;DHT22;32931;47.778;17.806;2023-02-21T02:03:06;7.80;99.90
47168;DHT22;32931;47.778;17.806;2023-02-21T02:05:56;7.80;99.90
47168;DHT22;32931;47.778;17.806;2023-02-21T02:08:41;7.90;99.90
47168;DHT22;32931;47.778;17.806;2023-02-21T02:25:38;8.00;99.90
47168;DHT22;32931;47.778;17.806;2023-02-21T02:42:48;8.20;99.90
47168;DHT22;32931;47.778;17.806;2023-02-21T02:47:47;8.30;99.90
47168;DHT22;32931;47.778;17.806;2023-02-21T02:50:16;8.40;99.90
47168;DHT22;32931;47.778;17.806;2023-02-21T02:52:54;8.50;99.90
47168;DHT22;32931;47.778;17.806;2023-02-21T02:55:43;8.50;99.90
47168;DHT22;32931;47.778;17.806;2023-02-21T02:58:12;8.60;99.90
47168;DHT22;32931;47.778;17.806;2023-02-21T03:00:42;8.50;99.90
47168;DHT22;32931;47.778;17.806;2023-02-21T03:05:57;8.50;99.90
47168;DHT22;32931;47.778;17.806;2023-02-21T03:08:36;8.50;99.90
47168;DHT22;32931;47.778;17.806;2023-02-21T03:11:14;8.40;99.90
47168;DHT22;32931;47.778;17.806;2023-02-21T03:16:24;8.30;99.90
47168;DHT22;32931;47.778;17.806;2023-02-21T03:19:23;8.30;99.90
47168;DHT22;32931;47.778;17.806;2023-02-21T03:21:54;8.20;99.90
47168;DHT22;32931;47.778;17.806;2023-02-21T03:24:22;8.20;99.90
47168;DHT22;32931;47.778;17.806;2023-02-21T03:26:52;8.20;99.90
47168;DHT22;32931;47.778;17.806;2023-02-21T03:29:21;8.20;99.90
47168;DHT22;32931;47.778;17.806;2023-02-21T03:31:54;8.20;99.90
47168;DHT22;32931;47.778;17.806;2023-02-21T03:34:20;8.20;99.90
47168;DHT22;32931;47.778;17.806;2023-02-21T03:36:48;8.20;99.90
47168;DHT22;32931;47.778;17.806;2023-02-21T03:39:14;8.30;99.90
47168;DHT22;32931;47.778;17.806;2023-02-21T03:41:40;8.30;99.90
47168;DHT22;32931;47.778;17.806;2023-02-21T03:44:06;8.30;99.90
47168;DHT22;32931;47.778;17.806;2023-02-21T03:46:33;8.40;99.90
47168;DHT22;32931;47.778;17.806;2023-02-21T03:48:59;8.40;99.90
47168;DHT22;32931;47.778;17.806;2023-02-21T03:51:25;8.40;99.90
47168;DHT22;32931;47.778;17.806;2023-02-21T03:53:52;8.40;99.90
47168;DHT22;32931;47.778;17.806;2023-02-21T03:56:18;8.40;99.90
47168;DHT22;32931;47.778;17.806;2023-02-21T03:58:44;8.40;99.90
47168;DHT22;32931;47.778;17.806;2023-02-21T04:01:10;8.40;99.90
47168;DHT22;32931;47.778;17.806;2023-02-21T04:03:36;8.40;99.90
47168;DHT22;32931;47.778;17.806;2023-02-21T04:06:03;8.40;99.90
47168;DHT22;32931;47.778;17.806;2023-02-21T04:08:29;8.40;99.90
47168;DHT22;32931;47.778;17.806;2023-02-21T04:10:55;8.40;99.90
47168;DHT22;32931;47.778;17.806;2023-02-21T04:13:21;8.40;99.90
47168;DHT22;32931;47.778;17.806;2023-02-21T04:15:49;8.40;99.90
47168;DHT22;32931;47.778;17.806;2023-02-21T04:18:15;8.40;99.90
47168;DHT22;32931;47.778;17.806;2023-02-21T04:20:41;8.40;99.90
47168;DHT22;32931;47.778;17.806;2023-02-21T04:23:07;8.30;99.90
47168;DHT22;32931;47.778;17.806;2023-02-21T04:25:33;8.30;99.90
47168;DHT22;32931;47.778;17.806;2023-02-21T04:28:00;8.20;99.90
47168;DHT22;32931;47.778;17.806;2023-02-21T04:30:26;8.20;99.90
47168;DHT22;32931;47.778;17.806;2023-02-21T04:32:52;8.20;99.90
47168;DHT22;32931;47.778;17.806;2023-02-21T04:35:18;8.20;99.90
47168;DHT22;32931;47.778;17.806;2023-02-21T04:37:45;8.10;99.90
47168;DHT22;32931;47.778;17.806;2023-02-21T04:40:11;8.10;99.90
47168;DHT22;32931;47.778;17.806;2023-02-21T04:42:37;8.00;99.90
47168;DHT22;32931;47.778;17.806;2023-02-21T04:45:04;8.00;99.90
47168;DHT22;32931;47.778;17.806;2023-02-21T04:47:30;7.90;99.90
47168;DHT22;32931;47.778;17.806;2023-02-21T04:49:56;7.90;99.90
47168;DHT22;32931;47.778;17.806;2023-02-21T04:52:23;7.90;99.90
47168;DHT22;32931;47.778;17.806;2023-02-21T04:54:49;7.90;99.90
47168;DHT22;32931;47.778;17.806;2023-02-21T04:57:16;7.90;99.90
47168;DHT22;32931;47.778;17.806;2023-02-21T04:59:42;7.90;99.90
47168;DHT22;32931;47.778;17.806;2023-02-21T05:02:08;7.90;99.90
47168;DHT22;32931;47.778;17.806;2023-02-21T05:04:35;7.90;99.90
47168;DHT22;32931;47.778;17.806;2023-02-21T05:07:02;7.90;99.90
47168;DHT22;32931;47.778;17.806;2023-02-21T05:09:28;7.90;99.90
47168;DHT22;32931;47.778;17.806;2023-02-21T05:11:55;7.80;99.90
47168;DHT22;32931;47.778;17.806;2023-02-21T05:14:21;7.80;99.90
47168;DHT22;32931;47.778;17.806;2023-02-21T05:16:47;7.80;99.90
47168;DHT22;32931;47.778;17.806;2023-02-21T05:19:18;7.80;99.90
47168;DHT22;32931;47.778;17.806;2023-02-21T05:21:56;7.80;99.90
47168;DHT22;32931;47.778;17.806;2023-02-21T05:24:23;7.80;99.90
47168;DHT22;32931;47.778;17.806;2023-02-21T05:26:50;7.80;99.90
47168;DHT22;32931;47.778;17.806;2023-02-21T05:29:17;7.80;99.90
47168;DHT22;32931;47.778;17.806;2023-02-21T05:31:44;7.80;99.90
47168;DHT22;32931;47.778;17.806;2023-02-21T05:34:10;7.90;99.90
47168;DHT22;32931;47.778;17.806;2023-02-21T05:36:37;7.90;99.90
47168;DHT22;32931;47.778;17.806;2023-02-21T05:39:04;7.90;99.90
47168;DHT22;32931;47.778;17.806;2023-02-21T05:41:30;7.90;99.90
47168;DHT22;32931;47.778;17.806;2023-02-21T05:43:56;7.90;99.90
47168;DHT22;32931;47.778;17.806;2023-02-21T05:46:27;7.90;99.90
47168;DHT22;32931;47.778;17.806;2023-02-21T05:48:55;7.90;99.90
47168;DHT22;32931;47.778;17.806;2023-02-21T05:51:22;7.90;99.90
47168;DHT22;32931;47.778;17.806;2023-02-21T05:53:49;7.90;99.90
47168;DHT22;32931;47.778;17.806;2023-02-21T05:56:15;7.90;99.90
47168;DHT22;32931;47.778;17.806;2023-02-21T05:58:42;7.90;99.90
47168;DHT22;32931;47.778;17.806;2023-02-21T06:01:08;8.00;99.90
47168;DHT22;32931;47.778;17.806;2023-02-21T06:03:35;8.00;99.90
47168;DHT22;32931;47.778;17.806;2023-02-21T06:06:01;8.00;99.90
47168;DHT22;32931;47.778;17.806;2023-02-21T06:08:27;8.00;99.90
47168;DHT22;32931;47.778;17.806;2023-02-21T06:10:54;8.00;99.90
47168;DHT22;32931;47.778;17.806;2023-02-21T06:13:20;8.10;99.90
47168;DHT22;32931;47.778;17.806;2023-02-21T06:15:47;8.10;99.90
47168;DHT22;32931;47.778;17.806;2023-02-21T06:18:14;8.10;99.90
47168;DHT22;32931;47.778;17.806;2023-02-21T06:20:42;8.20;99.90
47168;DHT22;32931;47.778;17.806;2023-02-21T06:23:08;8.20;99.90
47168;DHT22;32931;47.778;17.806;2023-02-21T06:25:34;8.30;99.90
47168;DHT22;32931;47.778;17.806;2023-02-21T06:28:00;8.30;99.90
47168;DHT22;32931;47.778;17.806;2023-02-21T06:30:26;8.40;99.90
47168;DHT22;32931;47.778;17.806;2023-02-21T06:32:53;8.50;99.90
47168;DHT22;32931;47.778;17.806;2023-02-21T06:35:19;8.60;99.90
47168;DHT22;32931;47.778;17.806;2023-02-21T06:37:45;8.70;99.90
47168;DHT22;32931;47.778;17.806;2023-02-21T06:40:11;8.80;99.90
47168;DHT22;32931;47.778;17.806;2023-02-21T06:42:37;8.90;99.90
47168;DHT22;32931;47.778;17.806;2023-02-21T06:45:04;9.00;99.90
47168;DHT22;32931;47.778;17.806;2023-02-21T06:47:30;9.10;99.90
47168;DHT22;32931;47.778;17.806;2023-02-21T06:49:57;9.20;99.90
47168;DHT22;32931;47.778;17.806;2023-02-21T06:52:23;9.30;99.90
47168;DHT22;32931;47.778;17.806;2023-02-21T06:54:50;9.40;99.90
47168;DHT22;32931;47.778;17.806;2023-02-21T06:57:16;9.40;99.90
47168;DHT22;32931;47.778;17.806;2023-02-21T06:59:42;9.50;99.90
47168;DHT22;32931;47.778;17.806;2023-02-21T07:02:16;9.50;99.90
47168;DHT22;32931;47.778;17.806;2023-02-21T07:04:46;9.60;99.90
47168;DHT22;32931;47.778;17.806;2023-02-21T07:07:13;9.70;99.90
47168;DHT22;32931;47.778;17.806;2023-02-21T07:09:39;9.80;99.90
47168;DHT22;32931;47.778;17.806;2023-02-21T07:12:05;9.90;99.90
47168;DHT22;32931;47.778;17.806;2023-02-21T07:14:33;10.00;99.90
47168;DHT22;32931;47.778;17.806;2023-02-21T07:17:00;10.10;99.90
47168;DHT22;32931;47.778;17.806;2023-02-21T07:19:26;10.10;99.90
47168;DHT22;32931;47.778;17.806;2023-02-21T07:21:52;10.20;99.90
47168;DHT22;32931;47.778;17.806;2023-02-21T07:24:18;10.30;99.90
47168;DHT22;32931;47.778;17.806;2023-02-21T07:26:45;10.40;99.90
47168;DHT22;32931;47.778;17.806;2023-02-21T07:29:11;10.40;99.90
47168;DHT22;32931;47.778;17.806;2023-02-21T07:31:37;10.40;99.90
47168;DHT22;32931;47.778;17.806;2023-02-21T07:34:03;10.50;99.90
47168;DHT22;32931;47.778;17.806;2023-02-21T07:36:30;10.60;99.90
47168;DHT22;32931;47.778;17.806;2023-02-21T07:38:56;10.60;99.90
47168;DHT22;32931;47.778;17.806;2023-02-21T07:41:22;10.70;99.90
47168;DHT22;32931;47.778;17.806;2023-02-21T07:43:49;10.70;99.90
47168;DHT22;32931;47.778;17.806;2023-02-21T07:46:16;10.80;99.90
47168;DHT22;32931;47.778;17.806;2023-02-21T07:48:43;10.90;99.90
47168;DHT22;32931;47.778;17.806;2023-02-21T07:51:09;11.00;99.90
47168;DHT22;32931;47.778;17.806;2023-02-21T07:53:35;11.00;99.90
47168;DHT22;32931;47.778;17.806;2023-02-21T07:56:03;11.00;99.90
47168;DHT22;32931;47.778;17.806;2023-02-21T07:58:29;11.10;99.90
47168;DHT22;32931;47.778;17.806;2023-02-21T08:00:57;11.10;99.90
47168;DHT22;32931;47.778;17.806;2023-02-21T08:03:23;11.10;99.90
47168;DHT22;32931;47.778;17.806;2023-02-21T08:05:49;11.20;99.90
47168;DHT22;32931;47.778;17.806;2023-02-21T08:08:15;11.20;99.90
47168;DHT22;32931;47.778;17.806;2023-02-21T08:10:42;11.20;99.90
47168;DHT22;32931;47.778;17.806;2023-02-21T08:13:08;11.30;99.90
47168;DHT22;32931;47.778;17.806;2023-02-21T08:15:34;11.30;99.90
47168;DHT22;32931;47.778;17.806;2023-02-21T08:18:00;11.30;99.90
47168;DHT22;32931;47.778;17.806;2023-02-21T08:20:26;11.30;99.90
47168;DHT22;32931;47.778;17.806;2023-02-21T08:22:53;11.30;99.90
47168;DHT22;32931;47.778;17.806;2023-02-21T08:25:19;11.30;99.90
47168;DHT22;32931;47.778;17.806;2023-02-21T08:27:45;11.40;99.90
47168;DHT22;32931;47.778;17.806;2023-02-21T08:30:14;11.40;99.90
47168;DHT22;32931;47.778;17.806;2023-02-21T08:32:41;11.40;99.90
47168;DHT22;32931;47.778;17.806;2023-02-21T08:35:13;11.40;99.90
47168;DHT22;32931;47.778;17.806;2023-02-21T08:37:42;11.40;99.90
47168;DHT22;32931;47.778;17.806;2023-02-21T08:40:10;11.40;99.90
47168;DHT22;32931;47.778;17.806;2023-02-21T08:42:36;11.40;99.90
47168;DHT22;32931;47.778;17.806;2023-02-21T08:45:03;11.40;99.90
47168;DHT22;32931;47.778;17.806;2023-02-21T08:47:33;11.50;99.90
47168;DHT22;32931;47.778;17.806;2023-02-21T08:49:59;11.50;99.90
47168;DHT22;32931;47.778;17.806;2023-02-21T08:52:26;11.50;99.90
47168;DHT22;32931;47.778;17.806;2023-02-21T08:54:52;11.50;99.90
47168;DHT22;32931;47.778;17.806;2023-02-21T08:57:18;11.50;99.90
47168;DHT22;32931;47.778;17.806;2023-02-21T08:59:44;11.60;99.90
47168;DHT22;32931;47.778;17.806;2023-02-21T09:02:18;11.60;99.90
47168;DHT22;32931;47.778;17.806;2023-02-21T09:04:45;11.70;99.90
47168;DHT22;32931;47.778;17.806;2023-02-21T09:07:13;11.70;99.90
47168;DHT22;32931;47.778;17.806;2023-02-21T09:09:39;11.80;99.90
47168;DHT22;32931;47.778;17.806;2023-02-21T09:12:06;11.80;99.90
47168;DHT22;32931;47.778;17.806;2023-02-21T09:14:36;11.80;99.90
47168;DHT22;32931;47.778;17.806;2023-02-21T09:17:05;11.90;99.90
47168;DHT22;32931;47.778;17.806;2023-02-21T09:19:32;11.90;99.90
47168;DHT22;32931;47.778;17.806;2023-02-21T09:21:58;11.90;99.90
47168;DHT22;32931;47.778;17.806;2023-02-21T09:24:26;11.90;99.90
47168;DHT22;32931;47.778;17.806;2023-02-21T09:26:54;12.00;99.90
47168;DHT22;32931;47.778;17.806;2023-02-21T09:29:25;12.00;99.90
47168;DHT22;32931;47.778;17.806;2023-02-21T09:31:51;12.00;99.90
47168;DHT22;32931;47.778;17.806;2023-02-21T09:34:18;12.10;99.90
47168;DHT22;32931;47.778;17.806;2023-02-21T09:36:44;12.10;99.90
47168;DHT22;32931;47.778;17.806;2023-02-21T09:39:12;12.20;99.90
47168;DHT22;32931;47.778;17.806;2023-02-21T09:41:39;12.20;99.90
47168;DHT22;32931;47.778;17.806;2023-02-21T09:44:27;12.30;99.90
47168;DHT22;32931;47.778;17.806;2023-02-21T09:47:01;12.30;99.90
47168;DHT22;32931;47.778;17.806;2023-02-21T09:49:39;12.40;99.90
47168;DHT22;32931;47.778;17.806;2023-02-21T09:52:34;12.40;99.90
47168;DHT22;32931;47.778;17.806;2023-02-21T09:55:02;12.50;99.90
47168;DHT22;32931;47.778;17.806;2023-02-21T09:57:30;12.60;99.90
47168;DHT22;32931;47.778;17.806;2023-02-21T09:59:56;12.60;99.90
47168;DHT22;32931;47.778;17.806;2023-02-21T10:02:48;12.70;99.90
47168;DHT22;32931;47.778;17.806;2023-02-21T10:05:20;12.80;99.90
47168;DHT22;32931;47.778;17.806;2023-02-21T10:10:53;13.00;99.90
47168;DHT22;32931;47.778;17.806;2023-02-21T10:13:45;12.90;99.90
47168;DHT22;32931;47.778;17.806;2023-02-21T10:16:39;13.00;99.90
47168;DHT22;32931;47.778;17.806;2023-02-21T10:19:28;13.00;99.90
47168;DHT22;32931;47.778;17.806;2023-02-21T10:21:57;13.10;99.90
47168;DHT22;32931;47.778;17.806;2023-02-21T10:24:25;13.10;99.90
47168;DHT22;32931;47.778;17.806;2023-02-21T10:32:02;13.20;99.90
47168;DHT22;32931;47.778;17.806;2023-02-21T10:34:31;13.20;99.90
47168;DHT22;32931;47.778;17.806;2023-02-21T10:37:18;13.20;99.90
47168;DHT22;32931;47.778;17.806;2023-02-21T10:39:51;13.30;99.90
47168;DHT22;32931;47.778;17.806;2023-02-21T10:42:28;13.30;99.90
47168;DHT22;32931;47.778;17.806;2023-02-21T10:44:56;13.30;99.90
47168;DHT22;32931;47.778;17.806;2023-02-21T10:48:03;13.30;99.90
47168;DHT22;32931;47.778;17.806;2023-02-21T10:50:51;13.40;99.90
47168;DHT22;32931;47.778;17.806;2023-02-21T10:58:49;13.50;99.90
47168;DHT22;32931;47.778;17.806;2023-02-21T11:04:03;13.60;99.90
47168;DHT22;32931;47.778;17.806;2023-02-21T11:06:31;13.50;99.90
47168;DHT22;32931;47.778;17.806;2023-02-21T11:08:59;13.60;99.90
47168;DHT22;32931;47.778;17.806;2023-02-21T11:11:40;13.60;99.90
47168;DHT22;32931;47.778;17.806;2023-02-21T11:14:24;13.60;99.90
47168;DHT22;32931;47.778;17.806;2023-02-21T11:17:19;13.70;99.90
47168;DHT22;32931;47.778;17.806;2023-02-21T11:19:51;13.70;99.90
47168;DHT22;32931;47.778;17.806;2023-02-21T11:22:23;13.70;99.90
47168;DHT22;32931;47.778;17.806;2023-02-21T11:25:14;13.70;99.90
47168;DHT22;32931;47.778;17.806;2023-02-21T11:27:44;13.80;99.90
47168;DHT22;32931;47.778;17.806;2023-02-21T11:30:17;13.80;99.90
47168;DHT22;32931;47.778;17.806;2023-02-21T11:32:49;13.80;99.90
47168;DHT22;32931;47.778;17.806;2023-02-21T11:40:50;13.90;99.90
47168;DHT22;32931;47.778;17.806;2023-02-21T11:43:32;13.90;99.90
47168;DHT22;32931;47.778;17.806;2023-02-21T11:46:07;13.90;99.90
47168;DHT22;32931;47.778;17.806;2023-02-21T11:54:09;14.00;99.90
47168;DHT22;32931;47.778;17.806;2023-02-21T12:10:56;14.00;99.90
47168;DHT22;32931;47.778;17.806;2023-02-21T12:17:06;14.20;99.90
47168;DHT22;32931;47.778;17.806;2023-02-21T12:22:34;14.40;99.90
47168;DHT22;32931;47.778;17.806;2023-02-21T12:31:05;14.50;99.90
47168;DHT22;32931;47.778;17.806;2023-02-21T12:36:54;14.60;99.90
47168;DHT22;32931;47.778;17.806;2023-02-21T12:39:56;14.60;99.90
47168;DHT22;32931;47.778;17.806;2023-02-21T12:42:40;14.60;99.90
47168;DHT22;32931;47.778;17.806;2023-02-21T12:48:08;14.70;99.90
47168;DHT22;32931;47.778;17.806;2023-02-21T12:50:52;14.70;99.90
47168;DHT22;32931;47.778;17.806;2023-02-21T12:56:38;14.70;99.90
47168;DHT22;32931;47.778;17.806;2023-02-21T12:59:13;14.80;99.90
47168;DHT22;32931;47.778;17.806;2023-02-21T13:01:52;14.90;99.90
47168;DHT22;32931;47.778;17.806;2023-02-21T13:04:54;14.90;99.90
47168;DHT22;32931;47.778;17.806;2023-02-21T13:07:23;15.00;99.90
47168;DHT22;32931;47.778;17.806;2023-02-21T13:10:19;15.10;99.90
47168;DHT22;32931;47.778;17.806;2023-02-21T13:13:18;15.20;99.90
47168;DHT22;32931;47.778;17.806;2023-02-21T13:15:47;15.30;99.90
47168;DHT22;32931;47.778;17.806;2023-02-21T13:18:23;15.30;99.90
47168;DHT22;32931;47.778;17.806;2023-02-21T13:21:18;15.20;99.90
47168;DHT22;32931;47.778;17.806;2023-02-21T13:32:55;15.70;99.90
47168;DHT22;32931;47.778;17.806;2023-02-21T13:35:33;16.00;99.90
47168;DHT22;32931;47.778;17.806;2023-02-21T13:38:01;16.10;99.90
47168;DHT22;32931;47.778;17.806;2023-02-21T13:43:29;16.30;99.90
47168;DHT22;32931;47.778;17.806;2023-02-21T14:08:34;15.60;99.90
47168;DHT22;32931;47.778;17.806;2023-02-21T14:14:05;15.70;99.90
47168;DHT22;32931;47.778;17.806;2023-02-21T14:19:24;15.80;99.90
47168;DHT22;32931;47.778;17.806;2023-02-21T14:24:47;15.70;99.90
47168;DHT22;32931;47.778;17.806;2023-02-21T14:27:31;15.70;99.90
47168;DHT22;32931;47.778;17.806;2023-02-21T14:38:15;15.50;99.90
47168;DHT22;32931;47.778;17.806;2023-02-21T14:41:27;15.50;99.90
47168;DHT22;32931;47.778;17.806;2023-02-21T14:44:23;15.50;99.70
47168;DHT22;32931;47.778;17.806;2023-02-21T14:47:03;15.50;99.90
47168;DHT22;32931;47.778;17.806;2023-02-21T14:58:51;15.70;99.10
47168;DHT22;32931;47.778;17.806;2023-02-21T15:01:45;15.60;99.00
47168;DHT22;32931;47.778;17.806;2023-02-21T15:04:30;15.50;99.30
47168;DHT22;32931;47.778;17.806;2023-02-21T15:09:35;15.40;99.90
47168;DHT22;32931;47.778;17.806;2023-02-21T15:12:06;15.30;99.90
47168;DHT22;32931;47.778;17.806;2023-02-21T15:14:38;15.20;99.90
47168;DHT22;32931;47.778;17.806;2023-02-21T15:17:12;15.20;99.90
47168;DHT22;32931;47.778;17.806;2023-02-21T15:19:41;15.20;99.80
47168;DHT22;32931;47.778;17.806;2023-02-21T15:22:23;15.40;99.90
47168;DHT22;32931;47.778;17.806;2023-02-21T15:25:16;15.70;99.10
47168;DHT22;32931;47.778;17.806;2023-02-21T15:30:26;16.00;99.00
47168;DHT22;32931;47.778;17.806;2023-02-21T15:33:04;16.10;99.10
47168;DHT22;32931;47.778;17.806;2023-02-21T15:36:19;16.10;98.00
47168;DHT22;32931;47.778;17.806;2023-02-21T15:38:26;16.20;99.10
47168;DHT22;32931;47.778;17.806;2023-02-21T15:40:56;16.10;98.40
47168;DHT22;32931;47.778;17.806;2023-02-21T15:44:14;16.10;99.40
47168;DHT22;32931;47.778;17.806;2023-02-21T15:46:20;15.90;97.60
47168;DHT22;32931;47.778;17.806;2023-02-21T15:48:47;15.70;98.50
47168;DHT22;32931;47.778;17.806;2023-02-21T15:51:14;15.50;99.70
47168;DHT22;32931;47.778;17.806;2023-02-21T15:53:41;15.20;99.60
47168;DHT22;32931;47.778;17.806;2023-02-21T15:56:20;15.00;99.80
47168;DHT22;32931;47.778;17.806;2023-02-21T15:59:06;14.80;99.70
47168;DHT22;32931;47.778;17.806;2023-02-21T16:01:33;14.60;99.60
47168;DHT22;32931;47.778;17.806;2023-02-21T16:04:21;14.50;99.90
47168;DHT22;32931;47.778;17.806;2023-02-21T16:06:54;14.40;99.90
47168;DHT22;32931;47.778;17.806;2023-02-21T16:09:27;14.30;99.90
47168;DHT22;32931;47.778;17.806;2023-02-21T16:17:30;14.00;99.90
47168;DHT22;32931;47.778;17.806;2023-02-21T16:20:12;14.00;99.90
47168;DHT22;32931;47.778;17.806;2023-02-21T16:22:40;13.90;99.90
47168;DHT22;32931;47.778;17.806;2023-02-21T16:27:43;13.70;99.90
47168;DHT22;32931;47.778;17.806;2023-02-21T16:30:25;13.60;99.90
47168;DHT22;32931;47.778;17.806;2023-02-21T16:32:57;13.50;99.90
47168;DHT22;32931;47.778;17.806;2023-02-21T16:35:24;13.40;99.90
47168;DHT22;32931;47.778;17.806;2023-02-21T16:37:54;13.40;99.90
47168;DHT22;32931;47.778;17.806;2023-02-21T16:40:23;13.30;99.90
47168;DHT22;32931;47.778;17.806;2023-02-21T16:42:51;13.20;99.90
47168;DHT22;32931;47.778;17.806;2023-02-21T16:45:18;13.20;99.90
47168;DHT22;32931;47.778;17.806;2023-02-21T16:47:45;13.10;99.90
47168;DHT22;32931;47.778;17.806;2023-02-21T16:50:33;13.10;99.90
47168;DHT22;32931;47.778;17.806;2023-02-21T16:53:00;13.00;99.90
47168;DHT22;32931;47.778;17.806;2023-02-21T16:55:28;13.00;99.90
47168;DHT22;32931;47.778;17.806;2023-02-21T16:58:00;12.90;99.90
47168;DHT22;32931;47.778;17.806;2023-02-21T17:00:27;12.90;99.90
47168;DHT22;32931;47.778;17.806;2023-02-21T17:02:53;12.80;99.90
47168;DHT22;32931;47.778;17.806;2023-02-21T17:05:21;12.80;99.90
47168;DHT22;32931;47.778;17.806;2023-02-21T17:07:49;12.80;99.90
47168;DHT22;32931;47.778;17.806;2023-02-21T17:10:16;12.70;99.90
47168;DHT22;32931;47.778;17.806;2023-02-21T17:12:42;12.60;99.90
47168;DHT22;32931;47.778;17.806;2023-02-21T17:15:08;12.60;99.90
47168;DHT22;32931;47.778;17.806;2023-02-21T17:17:36;12.50;99.90
47168;DHT22;32931;47.778;17.806;2023-02-21T17:20:04;12.50;99.90
47168;DHT22;32931;47.778;17.806;2023-02-21T17:22:30;12.40;99.90
47168;DHT22;32931;47.778;17.806;2023-02-21T17:24:56;12.40;99.90
47168;DHT22;32931;47.778;17.806;2023-02-21T17:27:22;12.30;99.90
47168;DHT22;32931;47.778;17.806;2023-02-21T17:29:48;12.20;99.90
47168;DHT22;32931;47.778;17.806;2023-02-21T17:32:15;12.20;99.90
47168;DHT22;32931;47.778;17.806;2023-02-21T17:34:42;12.10;99.90
47168;DHT22;32931;47.778;17.806;2023-02-21T17:37:08;12.00;99.90
47168;DHT22;32931;47.778;17.806;2023-02-21T17:39:35;11.90;99.90
47168;DHT22;32931;47.778;17.806;2023-02-21T17:42:02;11.90;99.90
47168;DHT22;32931;47.778;17.806;2023-02-21T17:44:28;11.80;99.90
47168;DHT22;32931;47.778;17.806;2023-02-21T17:46:56;11.80;99.90
47168;DHT22;32931;47.778;17.806;2023-02-21T17:49:25;11.80;99.90
47168;DHT22;32931;47.778;17.806;2023-02-21T17:51:52;11.80;99.90
47168;DHT22;32931;47.778;17.806;2023-02-21T17:54:21;11.80;99.90
47168;DHT22;32931;47.778;17.806;2023-02-21T17:56:47;11.80;99.90
47168;DHT22;32931;47.778;17.806;2023-02-21T17:59:15;11.70;99.90
47168;DHT22;32931;47.778;17.806;2023-02-21T18:01:41;11.70;99.90
47168;DHT22;32931;47.778;17.806;2023-02-21T18:04:08;11.70;99.90
47168;DHT22;32931;47.778;17.806;2023-02-21T18:06:35;11.70;99.90
47168;DHT22;32931;47.778;17.806;2023-02-21T18:09:02;11.70;99.90
47168;DHT22;32931;47.778;17.806;2023-02-21T18:11:30;11.60;99.90
47168;DHT22;32931;47.778;17.806;2023-02-21T18:13:57;11.60;99.90
47168;DHT22;32931;47.778;17.806;2023-02-21T18:16:23;11.60;99.90
47168;DHT22;32931;47.778;17.806;2023-02-21T18:18:49;11.50;99.90
47168;DHT22;32931;47.778;17.806;2023-02-21T18:21:16;11.50;99.90
47168;DHT22;32931;47.778;17.806;2023-02-21T18:23:44;11.40;99.90
47168;DHT22;32931;47.778;17.806;2023-02-21T18:26:12;11.30;99.90
47168;DHT22;32931;47.778;17.806;2023-02-21T18:28:38;11.30;99.90
47168;DHT22;32931;47.778;17.806;2023-02-21T18:31:04;11.30;99.90
47168;DHT22;32931;47.778;17.806;2023-02-21T18:33:31;11.30;99.90
47168;DHT22;32931;47.778;17.806;2023-02-21T18:35:57;11.30;99.90
47168;DHT22;32931;47.778;17.806;2023-02-21T18:38:25;11.30;99.90
47168;DHT22;32931;47.778;17.806;2023-02-21T18:40:52;11.20;99.90
47168;DHT22;32931;47.778;17.806;2023-02-21T18:43:21;11.20;99.90
47168;DHT22;32931;47.778;17.806;2023-02-21T18:45:50;11.10;99.90
47168;DHT22;32931;47.778;17.806;2023-02-21T18:48:17;11.10;99.90
47168;DHT22;32931;47.778;17.806;2023-02-21T18:50:43;11.10;99.90